Bon Homme, Mississippi
Current Conditions -  °F | °C
As of 9:53 AM on Saturday 25 Oct 2014 (Local Time) from KHBG Reporting Station
Clear Clear  
Wind Chill: 64°   Ceiling: Unl
Heat Index: 64°   Visibility: 10mi
Dew Point: 53°   Wind: 3mph
Humidity: 67%   Direction: 350°N
Pressure: 30.18"   Gusts: NA
Location:  31.1996°N, 89.2694°W
Report Text: KHBG 251453Z AUTO 35003KT 10SM CLR 18/12 A3018 RMK AO2 SLP218 T01780117 53013
Loading
Personal Weather Stations






























Interactive Weather Map
Tropical Storm Tracking
New forecast layout! Learn more

10-Day Weather Forecast

Advertisements
Track Severe Weather on mobile